sensor_id;sensor_type;location;lat;lon;timestamp;P1;durP1;ratioP1;P2;durP2;ratioP2
15151;SDS011;7676;50.900;6.234;2023-04-24T00:07:51;2.57;;;1.47;;
15151;SDS011;7676;50.900;6.234;2023-04-24T00:22:54;2.40;;;1.97;;
15151;SDS011;7676;50.900;6.234;2023-04-24T00:37:57;2.87;;;2.67;;
15151;SDS011;7676;50.900;6.234;2023-04-24T00:53:00;4.77;;;3.60;;
15151;SDS011;7676;50.900;6.234;2023-04-24T01:08:03;4.37;;;3.97;;
15151;SDS011;7676;50.900;6.234;2023-04-24T01:23:06;7.77;;;6.00;;
15151;SDS011;7676;50.900;6.234;2023-04-24T01:38:08;6.83;;;6.13;;
15151;SDS011;7676;50.900;6.234;2023-04-24T01:53:11;7.83;;;6.30;;
15151;SDS011;7676;50.900;6.234;2023-04-24T02:08:14;8.20;;;6.43;;
15151;SDS011;7676;50.900;6.234;2023-04-24T02:23:16;9.30;;;6.50;;
15151;SDS011;7676;50.900;6.234;2023-04-24T02:38:20;9.10;;;6.60;;
15151;SDS011;7676;50.900;6.234;2023-04-24T02:53:22;8.97;;;7.10;;
15151;SDS011;7676;50.900;6.234;2023-04-24T03:08:25;10.27;;;7.83;;
15151;SDS011;7676;50.900;6.234;2023-04-24T03:23:28;9.83;;;6.90;;
15151;SDS011;7676;50.900;6.234;2023-04-24T03:38:30;9.80;;;7.70;;
15151;SDS011;7676;50.900;6.234;2023-04-24T03:53:37;10.23;;;7.30;;
15151;SDS011;7676;50.900;6.234;2023-04-24T04:08:41;7.10;;;6.20;;
15151;SDS011;7676;50.900;6.234;2023-04-24T04:23:44;8.93;;;7.30;;
15151;SDS011;7676;50.900;6.234;2023-04-24T04:38:51;7.93;;;6.63;;
15151;SDS011;7676;50.900;6.234;2023-04-24T04:54:17;9.57;;;7.60;;
15151;SDS011;7676;50.900;6.234;2023-04-24T05:09:20;7.53;;;6.73;;
15151;SDS011;7676;50.900;6.234;2023-04-24T05:24:27;6.07;;;5.23;;
15151;SDS011;7676;50.900;6.234;2023-04-24T05:39:59;6.17;;;4.67;;
15151;SDS011;7676;50.900;6.234;2023-04-24T05:55:02;4.43;;;4.03;;
15151;SDS011;7676;50.900;6.234;2023-04-24T06:10:08;3.53;;;3.20;;
15151;SDS011;7676;50.900;6.234;2023-04-24T06:25:16;3.97;;;3.50;;
15151;SDS011;7676;50.900;6.234;2023-04-24T06:40:18;4.30;;;3.90;;
15151;SDS011;7676;50.900;6.234;2023-04-24T06:55:21;2.67;;;1.90;;
15151;SDS011;7676;50.900;6.234;2023-04-24T07:10:24;2.97;;;2.10;;
15151;SDS011;7676;50.900;6.234;2023-04-24T07:25:28;2.60;;;2.27;;
15151;SDS011;7676;50.900;6.234;2023-04-24T07:40:31;3.30;;;3.00;;
15151;SDS011;7676;50.900;6.234;2023-04-24T07:55:34;5.33;;;3.33;;
15151;SDS011;7676;50.900;6.234;2023-04-24T08:10:36;5.37;;;4.87;;
15151;SDS011;7676;50.900;6.234;2023-04-24T08:25:39;9.63;;;8.67;;
15151;SDS011;7676;50.900;6.234;2023-04-24T08:40:41;6.17;;;4.80;;
15151;SDS011;7676;50.900;6.234;2023-04-24T08:55:47;5.87;;;5.13;;
15151;SDS011;7676;50.900;6.234;2023-04-24T09:10:50;7.10;;;5.17;;
15151;SDS011;7676;50.900;6.234;2023-04-24T09:25:55;7.40;;;5.43;;
15151;SDS011;7676;50.900;6.234;2023-04-24T09:41:03;5.27;;;3.83;;
15151;SDS011;7676;50.900;6.234;2023-04-24T09:56:08;6.87;;;5.17;;
15151;SDS011;7676;50.900;6.234;2023-04-24T10:19:25;10.73;;;7.03;;
15151;SDS011;7676;50.900;6.234;2023-04-24T10:34:28;6.70;;;4.67;;
15151;SDS011;7676;50.900;6.234;2023-04-24T10:49:31;9.03;;;4.80;;
15151;SDS011;7676;50.900;6.234;2023-04-24T11:04:34;9.63;;;5.60;;
15151;SDS011;7676;50.900;6.234;2023-04-24T11:19:39;11.90;;;5.80;;
15151;SDS011;7676;50.900;6.234;2023-04-24T11:34:45;12.53;;;7.13;;
15151;SDS011;7676;50.900;6.234;2023-04-24T11:49:50;8.80;;;4.23;;
15151;SDS011;7676;50.900;6.234;2023-04-24T12:04:54;7.17;;;4.40;;
15151;SDS011;7676;50.900;6.234;2023-04-24T12:20:08;5.63;;;4.37;;
15151;SDS011;7676;50.900;6.234;2023-04-24T12:35:11;8.83;;;5.70;;
15151;SDS011;7676;50.900;6.234;2023-04-24T12:50:14;10.60;;;5.57;;
15151;SDS011;7676;50.900;6.234;2023-04-24T13:05:17;8.33;;;4.77;;
15151;SDS011;7676;50.900;6.234;2023-04-24T13:20:19;8.30;;;5.17;;
15151;SDS011;7676;50.900;6.234;2023-04-24T13:35:22;9.00;;;5.87;;
15151;SDS011;7676;50.900;6.234;2023-04-24T13:50:24;9.53;;;5.03;;
15151;SDS011;7676;50.900;6.234;2023-04-24T14:05:27;8.97;;;4.90;;
15151;SDS011;7676;50.900;6.234;2023-04-24T14:20:30;7.50;;;3.67;;
15151;SDS011;7676;50.900;6.234;2023-04-24T14:35:32;5.33;;;3.60;;
15151;SDS011;7676;50.900;6.234;2023-04-24T14:50:37;5.27;;;3.73;;
15151;SDS011;7676;50.900;6.234;2023-04-24T15:05:39;5.60;;;3.90;;
15151;SDS011;7676;50.900;6.234;2023-04-24T15:20:42;4.83;;;3.93;;
15151;SDS011;7676;50.900;6.234;2023-04-24T15:35:44;6.47;;;4.40;;
15151;SDS011;7676;50.900;6.234;2023-04-24T15:50:47;5.57;;;3.43;;
15151;SDS011;7676;50.900;6.234;2023-04-24T16:05:49;4.70;;;3.90;;
15151;SDS011;7676;50.900;6.234;2023-04-24T16:20:52;7.00;;;5.70;;
15151;SDS011;7676;50.900;6.234;2023-04-24T16:35:54;4.63;;;4.00;;
15151;SDS011;7676;50.900;6.234;2023-04-24T16:50:57;4.43;;;3.03;;
15151;SDS011;7676;50.900;6.234;2023-04-24T17:06:00;7.20;;;4.87;;
15151;SDS011;7676;50.900;6.234;2023-04-24T17:21:02;6.73;;;4.30;;
15151;SDS011;7676;50.900;6.234;2023-04-24T17:36:05;8.50;;;7.10;;
15151;SDS011;7676;50.900;6.234;2023-04-24T17:51:08;4.27;;;2.97;;
15151;SDS011;7676;50.900;6.234;2023-04-24T18:06:10;3.73;;;3.10;;
15151;SDS011;7676;50.900;6.234;2023-04-24T18:21:12;4.27;;;2.87;;
15151;SDS011;7676;50.900;6.234;2023-04-24T18:36:15;4.00;;;2.93;;
15151;SDS011;7676;50.900;6.234;2023-04-24T18:51:18;5.23;;;3.10;;
15151;SDS011;7676;50.900;6.234;2023-04-24T19:06:20;4.00;;;2.60;;
15151;SDS011;7676;50.900;6.234;2023-04-24T19:21:23;3.77;;;2.83;;
15151;SDS011;7676;50.900;6.234;2023-04-24T19:36:26;4.50;;;3.10;;
15151;SDS011;7676;50.900;6.234;2023-04-24T19:51:30;4.77;;;3.37;;
15151;SDS011;7676;50.900;6.234;2023-04-24T20:06:34;4.00;;;3.23;;
15151;SDS011;7676;50.900;6.234;2023-04-24T20:21:36;5.37;;;3.23;;
15151;SDS011;7676;50.900;6.234;2023-04-24T20:36:40;6.27;;;3.40;;
15151;SDS011;7676;50.900;6.234;2023-04-24T20:51:49;6.23;;;3.53;;
15151;SDS011;7676;50.900;6.234;2023-04-24T21:06:51;6.60;;;3.63;;
15151;SDS011;7676;50.900;6.234;2023-04-24T21:21:54;5.67;;;3.40;;
15151;SDS011;7676;50.900;6.234;2023-04-24T21:36:56;9.70;;;4.40;;
15151;SDS011;7676;50.900;6.234;2023-04-24T21:51:59;5.60;;;3.30;;
15151;SDS011;7676;50.900;6.234;2023-04-24T22:07:01;8.50;;;4.13;;
15151;SDS011;7676;50.900;6.234;2023-04-24T22:22:04;7.53;;;3.73;;
15151;SDS011;7676;50.900;6.234;2023-04-24T22:37:06;7.63;;;4.17;;
15151;SDS011;7676;50.900;6.234;2023-04-24T22:52:09;11.23;;;3.83;;
15151;SDS011;7676;50.900;6.234;2023-04-24T23:07:11;9.67;;;4.37;;
15151;SDS011;7676;50.900;6.234;2023-04-24T23:22:14;7.03;;;3.63;;
15151;SDS011;7676;50.900;6.234;2023-04-24T23:37:16;6.90;;;3.63;;
15151;SDS011;7676;50.900;6.234;2023-04-24T23:52:20;9.17;;;4.10;;
